HECA/CAI METAR and TAF weather

Enter ICAO airport designator
Station Type Date Time Source
HECA METAR 2024/04/15 08:00 UTC NOAA

HECA 150800Z 33005KT CAVOK 22/15 Q1016 NOSIG


Station Type Date Time Source
HECA Decoded METAR 2024/04/15 08:00 UTC NOAA

Cairo Airport, Egypt (HECA) 30-08N 031-24E 74M
Apr 15, 2024 - 04:00 AM EDT / 2024.04.15 0800 UTC
Wind: from the NNW (330 degrees) at 6 MPH (5 KT):0
Visibility: greater than 7 mile(s):0
Temperature: 71 F (22 C)
Dew Point: 59 F (15 C)
Relative Humidity: 64%
Pressure (altimeter): 30.00 in. Hg (1016 hPa)
ob: HECA 150800Z 33005KT CAVOK 22/15 Q1016 NOSIG
cycle: 8

Station Type Date Time Source
HECA TAF 2024/04/15 06:12 UTC NOAA